sensor_id;sensor_type;location;lat;lon;timestamp;pressure;altitude;pressure_sealevel;temperature;humidity
39769;BME280;38939;47.824;14.642;2024-03-22T00:00:52;97463.22;;;10.14;87.55
39769;BME280;38939;47.824;14.642;2024-03-22T00:01:53;97463.41;;;10.13;87.67
39769;BME280;38939;47.824;14.642;2024-03-22T00:02:54;97462.59;;;10.12;87.82
39769;BME280;38939;47.824;14.642;2024-03-22T00:03:55;97461.75;;;10.12;88.01
39769;BME280;38939;47.824;14.642;2024-03-22T00:04:56;97469.16;;;10.08;88.17
39769;BME280;38939;47.824;14.642;2024-03-22T00:05:56;97467.38;;;10.09;88.30
39769;BME280;38939;47.824;14.642;2024-03-22T00:06:57;97469.16;;;10.08;88.02
39769;BME280;38939;47.824;14.642;2024-03-22T00:07:59;97461.34;;;10.08;88.33
39769;BME280;38939;47.824;14.642;2024-03-22T00:08:59;97469.16;;;10.08;88.16
39769;BME280;38939;47.824;14.642;2024-03-22T00:10:00;97475.19;;;10.09;88.16
39769;BME280;38939;47.824;14.642;2024-03-22T00:11:01;97470.94;;;10.08;87.89
39769;BME280;38939;47.824;14.642;2024-03-22T00:12:02;97479.59;;;10.08;87.77
39769;BME280;38939;47.824;14.642;2024-03-22T00:13:04;97477.00;;;10.08;87.95
39769;BME280;38939;47.824;14.642;2024-03-22T00:14:05;97476.38;;;10.06;88.17
39769;BME280;38939;47.824;14.642;2024-03-22T00:15:06;97477.16;;;10.07;88.15
39769;BME280;38939;47.824;14.642;2024-03-22T00:16:07;97477.34;;;10.05;88.38
39769;BME280;38939;47.824;14.642;2024-03-22T00:17:08;97480.13;;;10.04;88.56
39769;BME280;38939;47.824;14.642;2024-03-22T00:18:08;97479.72;;;10.00;88.65
39769;BME280;38939;47.824;14.642;2024-03-22T00:19:09;97485.09;;;9.98;88.59
39769;BME280;38939;47.824;14.642;2024-03-22T00:20:10;97480.06;;;9.97;88.74
39769;BME280;38939;47.824;14.642;2024-03-22T00:21:11;97483.69;;;9.96;89.09
39769;BME280;38939;47.824;14.642;2024-03-22T00:22:12;97484.66;;;9.95;89.09
39769;BME280;38939;47.824;14.642;2024-03-22T00:23:12;97484.03;;;9.93;88.84
39769;BME280;38939;47.824;14.642;2024-03-22T00:24:13;97482.44;;;9.92;89.08
39769;BME280;38939;47.824;14.642;2024-03-22T00:25:14;97492.03;;;9.91;89.18
39769;BME280;38939;47.824;14.642;2024-03-22T00:26:15;97489.81;;;9.88;89.21
39769;BME280;38939;47.824;14.642;2024-03-22T00:27:16;97485.78;;;9.86;88.98
39769;BME280;38939;47.824;14.642;2024-03-22T00:28:16;97496.19;;;9.86;88.93
39769;BME280;38939;47.824;14.642;2024-03-22T00:29:18;97484.94;;;9.85;89.02
39769;BME280;38939;47.824;14.642;2024-03-22T00:30:19;97488.72;;;9.82;88.96
39769;BME280;38939;47.824;14.642;2024-03-22T00:31:20;97491.34;;;9.82;88.83
39769;BME280;38939;47.824;14.642;2024-03-22T00:32:21;97494.75;;;9.83;88.74
39769;BME280;38939;47.824;14.642;2024-03-22T00:33:22;97493.13;;;9.82;89.02
39769;BME280;38939;47.824;14.642;2024-03-22T00:34:22;97490.72;;;9.80;88.81
39769;BME280;38939;47.824;14.642;2024-03-22T00:35:23;97487.47;;;9.78;88.99
39769;BME280;38939;47.824;14.642;2024-03-22T00:36:24;97483.63;;;9.74;89.11
39769;BME280;38939;47.824;14.642;2024-03-22T00:37:25;97493.41;;;9.72;89.25
39769;BME280;38939;47.824;14.642;2024-03-22T00:38:25;97493.41;;;9.72;89.19
39769;BME280;38939;47.824;14.642;2024-03-22T00:39:27;97485.59;;;9.72;89.38
39769;BME280;38939;47.824;14.642;2024-03-22T00:40:28;97482.63;;;9.75;89.47
39769;BME280;38939;47.824;14.642;2024-03-22T00:41:28;97487.81;;;9.75;89.56
39769;BME280;38939;47.824;14.642;2024-03-22T00:42:29;97487.03;;;9.75;89.51
39769;BME280;38939;47.824;14.642;2024-03-22T00:43:30;97485.22;;;9.75;89.55
39769;BME280;38939;47.824;14.642;2024-03-22T00:44:32;97491.25;;;9.76;89.42
39769;BME280;38939;47.824;14.642;2024-03-22T00:45:32;97489.81;;;9.73;89.41
39769;BME280;38939;47.824;14.642;2024-03-22T00:46:33;97491.78;;;9.71;89.44
39769;BME280;38939;47.824;14.642;2024-03-22T00:47:34;97487.91;;;9.67;89.46
39769;BME280;38939;47.824;14.642;2024-03-22T00:48:35;97491.97;;;9.70;89.64
39769;BME280;38939;47.824;14.642;2024-03-22T00:49:36;97483.97;;;9.71;90.04
39769;BME280;38939;47.824;14.642;2024-03-22T00:50:37;97491.44;;;9.74;89.86
39769;BME280;38939;47.824;14.642;2024-03-22T00:51:38;97485.03;;;9.77;89.89
39769;BME280;38939;47.824;14.642;2024-03-22T00:52:39;97489.44;;;9.76;89.76
39769;BME280;38939;47.824;14.642;2024-03-22T00:53:39;97486.47;;;9.79;89.95
39769;BME280;38939;47.824;14.642;2024-03-22T00:54:40;97481.88;;;9.81;90.00
39769;BME280;38939;47.824;14.642;2024-03-22T00:55:41;97483.50;;;9.82;89.99
39769;BME280;38939;47.824;14.642;2024-03-22T00:56:42;97485.31;;;9.82;89.79
39769;BME280;38939;47.824;14.642;2024-03-22T00:57:42;97483.50;;;9.82;89.55
39769;BME280;38939;47.824;14.642;2024-03-22T00:58:43;97487.94;;;9.82;89.28
39769;BME280;38939;47.824;14.642;2024-03-22T00:59:44;97482.72;;;9.82;89.14
39769;BME280;38939;47.824;14.642;2024-03-22T01:00:45;97480.09;;;9.82;88.86
39769;BME280;38939;47.824;14.642;2024-03-22T01:01:45;97478.28;;;9.82;88.81
39769;BME280;38939;47.824;14.642;2024-03-22T01:02:46;97490.31;;;9.84;88.82
39769;BME280;38939;47.824;14.642;2024-03-22T01:03:47;97487.09;;;9.81;88.61
39769;BME280;38939;47.824;14.642;2024-03-22T01:04:48;97483.88;;;9.79;88.84
39769;BME280;38939;47.824;14.642;2024-03-22T01:05:48;97481.88;;;9.81;88.90
39769;BME280;38939;47.824;14.642;2024-03-22T01:06:50;97475.69;;;9.82;88.91
39769;BME280;38939;47.824;14.642;2024-03-22T01:07:51;97479.91;;;9.84;88.71
39769;BME280;38939;47.824;14.642;2024-03-22T01:08:51;97485.78;;;9.86;88.83
39769;BME280;38939;47.824;14.642;2024-03-22T01:09:52;97478.75;;;9.86;88.77
39769;BME280;38939;47.824;14.642;2024-03-22T01:10:53;97479.72;;;9.85;88.63
39769;BME280;38939;47.824;14.642;2024-03-22T01:11:54;97485.78;;;9.86;88.68
39769;BME280;38939;47.824;14.642;2024-03-22T01:12:55;97479.91;;;9.84;88.65
39769;BME280;38939;47.824;14.642;2024-03-22T01:13:55;97480.28;;;9.80;88.92
39769;BME280;38939;47.824;14.642;2024-03-22T01:14:57;97478.28;;;9.82;88.91
39769;BME280;38939;47.824;14.642;2024-03-22T01:15:58;97470.31;;;9.84;88.91
39769;BME280;38939;47.824;14.642;2024-03-22T01:16:59;97471.72;;;9.87;88.63
39769;BME280;38939;47.824;14.642;2024-03-22T01:18:01;97484.41;;;9.90;88.57
39769;BME280;38939;47.824;14.642;2024-03-22T01:19:02;97480.78;;;9.91;89.08
39769;BME280;38939;47.824;14.642;2024-03-22T01:20:02;97477.84;;;9.94;88.86
39769;BME280;38939;47.824;14.642;2024-03-22T01:21:03;97475.59;;;9.91;89.00
39769;BME280;38939;47.824;14.642;2024-03-22T01:22:06;97475.22;;;9.94;88.96
39769;BME280;38939;47.824;14.642;2024-03-22T01:23:07;97476.66;;;9.96;88.82
39769;BME280;38939;47.824;14.642;2024-03-22T01:24:08;97482.66;;;9.97;88.66
39769;BME280;38939;47.824;14.642;2024-03-22T01:25:09;97477.09;;;10.00;88.59
39769;BME280;38939;47.824;14.642;2024-03-22T01:26:10;97472.50;;;10.02;88.81
39769;BME280;38939;47.824;14.642;2024-03-22T01:27:11;97479.34;;;10.03;88.67
39769;BME280;38939;47.824;14.642;2024-03-22T01:28:12;97474.13;;;10.03;88.87
39769;BME280;38939;47.824;14.642;2024-03-22T01:29:13;97471.50;;;10.03;88.56
39769;BME280;38939;47.824;14.642;2024-03-22T01:30:14;97470.09;;;10.00;88.64
39769;BME280;38939;47.824;14.642;2024-03-22T01:31:15;97470.25;;;9.99;88.67
39769;BME280;38939;47.824;14.642;2024-03-22T01:32:16;97473.44;;;9.94;88.41
39769;BME280;38939;47.824;14.642;2024-03-22T01:33:17;97472.34;;;9.89;88.46
39769;BME280;38939;47.824;14.642;2024-03-22T01:34:17;97474.97;;;9.89;88.70
39769;BME280;38939;47.824;14.642;2024-03-22T01:35:18;97474.78;;;9.90;88.55
39769;BME280;38939;47.824;14.642;2024-03-22T01:36:19;97469.13;;;9.87;88.31
39769;BME280;38939;47.824;14.642;2024-03-22T01:37:19;97470.31;;;9.84;88.57
39769;BME280;38939;47.824;14.642;2024-03-22T01:38:21;97476.66;;;9.81;88.86
39769;BME280;38939;47.824;14.642;2024-03-22T01:39:22;97470.84;;;9.79;88.89
39769;BME280;38939;47.824;14.642;2024-03-22T01:40:22;97467.59;;;9.77;89.05
39769;BME280;38939;47.824;14.642;2024-03-22T01:41:23;97466.97;;;9.75;88.79
39769;BME280;38939;47.824;14.642;2024-03-22T01:42:24;97470.94;;;9.71;88.85
39769;BME280;38939;47.824;14.642;2024-03-22T01:43:24;97463.22;;;9.63;89.04
39769;BME280;38939;47.824;14.642;2024-03-22T01:44:27;97462.97;;;9.58;89.08
39769;BME280;38939;47.824;14.642;2024-03-22T01:45:31;97459.13;;;9.54;89.27
39769;BME280;38939;47.824;14.642;2024-03-22T01:46:32;97457.66;;;9.51;89.10
39769;BME280;38939;47.824;14.642;2024-03-22T01:47:33;97455.25;;;9.50;89.44
39769;BME280;38939;47.824;14.642;2024-03-22T01:48:35;97462.06;;;9.51;89.45
39769;BME280;38939;47.824;14.642;2024-03-22T01:49:36;97458.38;;;9.45;89.48
39769;BME280;38939;47.824;14.642;2024-03-22T01:50:36;97463.78;;;9.44;90.10
39769;BME280;38939;47.824;14.642;2024-03-22T01:51:38;97461.81;;;9.46;89.81
39769;BME280;38939;47.824;14.642;2024-03-22T01:52:39;97459.38;;;9.44;89.59
39769;BME280;38939;47.824;14.642;2024-03-22T01:53:40;97455.97;;;9.44;89.82
39769;BME280;38939;47.824;14.642;2024-03-22T01:54:42;97450.66;;;9.37;89.76
39769;BME280;38939;47.824;14.642;2024-03-22T01:55:43;97443.41;;;9.32;89.92
39769;BME280;38939;47.824;14.642;2024-03-22T01:56:45;97445.94;;;9.26;90.10
39769;BME280;38939;47.824;14.642;2024-03-22T01:57:48;97444.84;;;9.20;90.13
39769;BME280;38939;47.824;14.642;2024-03-22T01:58:49;97451.38;;;9.16;90.33
39769;BME280;38939;47.824;14.642;2024-03-22T01:59:54;97450.94;;;9.12;89.70
39769;BME280;38939;47.824;14.642;2024-03-22T02:00:56;97454.88;;;9.08;90.27
39769;BME280;38939;47.824;14.642;2024-03-22T02:01:57;97449.94;;;8.98;90.86
39769;BME280;38939;47.824;14.642;2024-03-22T02:02:58;97445.72;;;8.97;90.61
39769;BME280;38939;47.824;14.642;2024-03-22T02:03:59;97446.69;;;8.96;90.41
39769;BME280;38939;47.824;14.642;2024-03-22T02:05:05;97440.69;;;8.96;90.42
39769;BME280;38939;47.824;14.642;2024-03-22T02:06:13;97438.88;;;8.96;90.50
39769;BME280;38939;47.824;14.642;2024-03-22T02:07:14;97445.91;;;8.96;90.71
39769;BME280;38939;47.824;14.642;2024-03-22T02:08:16;97433.88;;;8.95;91.01
39769;BME280;38939;47.824;14.642;2024-03-22T02:09:17;97444.09;;;8.96;90.82
39769;BME280;38939;47.824;14.642;2024-03-22T02:10:18;97432.88;;;8.96;90.44
39769;BME280;38939;47.824;14.642;2024-03-22T02:11:19;97435.66;;;8.94;90.77
39769;BME280;38939;47.824;14.642;2024-03-22T02:12:20;97434.06;;;8.93;90.36
39769;BME280;38939;47.824;14.642;2024-03-22T02:13:21;97433.44;;;8.91;90.45
39769;BME280;38939;47.824;14.642;2024-03-22T02:14:22;97424.34;;;8.87;90.16
39769;BME280;38939;47.824;14.642;2024-03-22T02:15:24;97432.34;;;8.86;90.26
39769;BME280;38939;47.824;14.642;2024-03-22T02:16:25;97425.06;;;8.81;90.15
39769;BME280;38939;47.824;14.642;2024-03-22T02:17:25;97422.00;;;8.77;90.33
39769;BME280;38939;47.824;14.642;2024-03-22T02:18:27;97421.38;;;8.75;90.82
39769;BME280;38939;47.824;14.642;2024-03-22T02:19:27;97420.75;;;8.73;90.37
39769;BME280;38939;47.824;14.642;2024-03-22T02:20:28;97417.84;;;8.68;90.67
39769;BME280;38939;47.824;14.642;2024-03-22T02:21:29;97417.69;;;8.70;91.20
39769;BME280;38939;47.824;14.642;2024-03-22T02:22:30;97422.72;;;8.71;90.95
39769;BME280;38939;47.824;14.642;2024-03-22T02:23:34;97420.28;;;8.70;91.20
39769;BME280;38939;47.824;14.642;2024-03-22T02:24:35;97430.69;;;8.70;91.49
39769;BME280;38939;47.824;14.642;2024-03-22T02:25:36;97431.50;;;8.70;91.81
39769;BME280;38939;47.824;14.642;2024-03-22T02:26:37;97421.91;;;8.71;91.13
39769;BME280;38939;47.824;14.642;2024-03-22T02:27:38;97421.09;;;8.70;91.72
39769;BME280;38939;47.824;14.642;2024-03-22T02:28:39;97428.25;;;8.68;91.65
39769;BME280;38939;47.824;14.642;2024-03-22T02:29:40;97424.22;;;8.66;91.69
39769;BME280;38939;47.824;14.642;2024-03-22T02:30:41;97423.59;;;8.64;91.54
39769;BME280;38939;47.824;14.642;2024-03-22T02:31:42;97418.94;;;8.59;91.04
39769;BME280;38939;47.824;14.642;2024-03-22T02:32:43;97429.50;;;8.57;91.05
39769;BME280;38939;47.824;14.642;2024-03-22T02:33:43;97416.88;;;8.54;91.59
39769;BME280;38939;47.824;14.642;2024-03-22T02:34:44;97424.66;;;8.54;91.78
39769;BME280;38939;47.824;14.642;2024-03-22T02:35:48;97425.16;;;8.50;91.82
39769;BME280;38939;47.824;14.642;2024-03-22T02:36:49;97424.00;;;8.52;92.71
39769;BME280;38939;47.824;14.642;2024-03-22T02:37:50;97412.63;;;8.53;92.30
39769;BME280;38939;47.824;14.642;2024-03-22T02:38:51;97412.09;;;8.58;92.23
39769;BME280;38939;47.824;14.642;2024-03-22T02:39:52;97410.94;;;8.60;92.50
39769;BME280;38939;47.824;14.642;2024-03-22T02:40:53;97407.97;;;8.64;92.34
39769;BME280;38939;47.824;14.642;2024-03-22T02:41:54;97408.63;;;8.66;91.99
39769;BME280;38939;47.824;14.642;2024-03-22T02:42:55;97409.88;;;8.70;92.45
39769;BME280;38939;47.824;14.642;2024-03-22T02:43:55;97409.53;;;8.73;91.57
39769;BME280;38939;47.824;14.642;2024-03-22T02:44:56;97407.56;;;8.75;91.76
39769;BME280;38939;47.824;14.642;2024-03-22T02:45:57;97400.56;;;8.75;91.58
39769;BME280;38939;47.824;14.642;2024-03-22T02:46:58;97401.38;;;8.76;91.39
39769;BME280;38939;47.824;14.642;2024-03-22T02:47:58;97404.59;;;8.78;91.55
39769;BME280;38939;47.824;14.642;2024-03-22T02:49:00;97406.41;;;8.77;91.25
39769;BME280;38939;47.824;14.642;2024-03-22T02:50:01;97399.22;;;8.79;91.16
39769;BME280;38939;47.824;14.642;2024-03-22T02:51:01;97400.66;;;8.82;91.45
39769;BME280;38939;47.824;14.642;2024-03-22T02:52:02;97399.69;;;8.83;91.24
39769;BME280;38939;47.824;14.642;2024-03-22T02:53:03;97406.16;;;8.87;91.60
39769;BME280;38939;47.824;14.642;2024-03-22T02:54:04;97404.97;;;8.90;91.30
39769;BME280;38939;47.824;14.642;2024-03-22T02:55:06;97410.00;;;8.91;91.16
39769;BME280;38939;47.824;14.642;2024-03-22T02:56:07;97414.66;;;8.81;91.76
39769;BME280;38939;47.824;14.642;2024-03-22T02:57:09;97410.16;;;8.75;91.52
39769;BME280;38939;47.824;14.642;2024-03-22T02:58:10;97396.78;;;8.78;91.66
39769;BME280;38939;47.824;14.642;2024-03-22T02:59:11;97405.69;;;8.84;91.31
39769;BME280;38939;47.824;14.642;2024-03-22T03:00:12;97401.09;;;8.86;91.64
39769;BME280;38939;47.824;14.642;2024-03-22T03:01:13;97397.16;;;8.90;91.33
39769;BME280;38939;47.824;14.642;2024-03-22T03:02:13;97400.41;;;8.92;90.87
39769;BME280;38939;47.824;14.642;2024-03-22T03:03:14;97407.03;;;8.94;90.76
39769;BME280;38939;47.824;14.642;2024-03-22T03:04:15;97400.47;;;8.98;90.69
39769;BME280;38939;47.824;14.642;2024-03-22T03:05:16;97403.09;;;8.98;90.45
39769;BME280;38939;47.824;14.642;2024-03-22T03:06:17;97403.53;;;9.02;90.95
39769;BME280;38939;47.824;14.642;2024-03-22T03:07:20;97394.38;;;9.06;90.81
39769;BME280;38939;47.824;14.642;2024-03-22T03:08:21;97397.44;;;9.10;90.38
39769;BME280;38939;47.824;14.642;2024-03-22T03:09:22;97396.09;;;9.14;90.21
39769;BME280;38939;47.824;14.642;2024-03-22T03:10:23;97399.31;;;9.16;90.73
39769;BME280;38939;47.824;14.642;2024-03-22T03:11:24;97393.13;;;9.17;90.68
39769;BME280;38939;47.824;14.642;2024-03-22T03:12:24;97394.75;;;9.18;90.69
39769;BME280;38939;47.824;14.642;2024-03-22T03:13:25;97388.56;;;9.19;90.77
39769;BME280;38939;47.824;14.642;2024-03-22T03:14:27;97392.59;;;9.21;90.68
39769;BME280;38939;47.824;14.642;2024-03-22T03:15:28;97382.97;;;9.22;90.66
39769;BME280;38939;47.824;14.642;2024-03-22T03:16:29;97392.22;;;9.25;90.55
39769;BME280;38939;47.824;14.642;2024-03-22T03:17:30;97386.22;;;9.24;90.58
39769;BME280;38939;47.824;14.642;2024-03-22T03:18:31;97385.59;;;9.22;90.63
39769;BME280;38939;47.824;14.642;2024-03-22T03:19:31;97380.38;;;9.22;90.82
39769;BME280;38939;47.824;14.642;2024-03-22T03:20:32;97383.78;;;9.23;90.59
39769;BME280;38939;47.824;14.642;2024-03-22T03:21:34;97384.22;;;9.26;90.51
39769;BME280;38939;47.824;14.642;2024-03-22T03:22:35;97386.84;;;9.26;90.18
39769;BME280;38939;47.824;14.642;2024-03-22T03:23:35;97390.00;;;9.21;90.21
39769;BME280;38939;47.824;14.642;2024-03-22T03:24:36;97390.97;;;9.20;89.78
39769;BME280;38939;47.824;14.642;2024-03-22T03:25:37;97383.34;;;9.19;90.01
39769;BME280;38939;47.824;14.642;2024-03-22T03:26:38;97385.97;;;9.19;90.03
39769;BME280;38939;47.824;14.642;2024-03-22T03:27:38;97385.13;;;9.18;90.17
39769;BME280;38939;47.824;14.642;2024-03-22T03:28:40;97386.31;;;9.16;89.77
39769;BME280;38939;47.824;14.642;2024-03-22T03:29:41;97388.09;;;9.15;89.87
39769;BME280;38939;47.824;14.642;2024-03-22T03:30:41;97388.91;;;9.16;89.91
39769;BME280;38939;47.824;14.642;2024-03-22T03:31:42;97387.72;;;9.18;89.58
39769;BME280;38939;47.824;14.642;2024-03-22T03:32:43;97390.97;;;9.20;89.72
39769;BME280;38939;47.824;14.642;2024-03-22T03:33:45;97385.59;;;9.22;89.67
39769;BME280;38939;47.824;14.642;2024-03-22T03:34:46;97389.81;;;9.23;89.52
39769;BME280;38939;47.824;14.642;2024-03-22T03:35:46;97387.00;;;9.25;89.68
39769;BME280;38939;47.824;14.642;2024-03-22T03:36:47;97389.88;;;9.30;89.63
39769;BME280;38939;47.824;14.642;2024-03-22T03:37:49;97384.69;;;9.30;89.98
39769;BME280;38939;47.824;14.642;2024-03-22T03:38:49;97391.31;;;9.32;89.80
39769;BME280;38939;47.824;14.642;2024-03-22T03:39:50;97388.38;;;9.35;90.13
39769;BME280;38939;47.824;14.642;2024-03-22T03:40:51;97390.13;;;9.35;89.90
39769;BME280;38939;47.824;14.642;2024-03-22T03:41:51;97389.00;;;9.37;89.84
39769;BME280;38939;47.824;14.642;2024-03-22T03:42:52;97380.34;;;9.37;89.70
39769;BME280;38939;47.824;14.642;2024-03-22T03:43:53;97394.81;;;9.39;89.32
39769;BME280;38939;47.824;14.642;2024-03-22T03:44:54;97394.19;;;9.37;89.76
39769;BME280;38939;47.824;14.642;2024-03-22T03:45:55;97387.97;;;9.38;89.52
39769;BME280;38939;47.824;14.642;2024-03-22T03:46:56;97392.38;;;9.38;89.26
39769;BME280;38939;47.824;14.642;2024-03-22T03:47:57;97389.00;;;9.37;89.44
39769;BME280;38939;47.824;14.642;2024-03-22T03:48:57;97391.22;;;9.40;89.44
39769;BME280;38939;47.824;14.642;2024-03-22T03:49:58;97391.22;;;9.40;89.65
39769;BME280;38939;47.824;14.642;2024-03-22T03:50:59;97400.44;;;9.43;89.69
39769;BME280;38939;47.824;14.642;2024-03-22T03:52:03;97395.56;;;9.33;90.04
39769;BME280;38939;47.824;14.642;2024-03-22T03:53:04;97392.41;;;9.23;90.45
39769;BME280;38939;47.824;14.642;2024-03-22T03:54:05;97397.41;;;9.25;90.29
39769;BME280;38939;47.824;14.642;2024-03-22T03:55:06;97393.84;;;9.26;90.56
39769;BME280;38939;47.824;14.642;2024-03-22T03:56:06;97389.25;;;9.28;90.70
39769;BME280;38939;47.824;14.642;2024-03-22T03:57:07;97389.50;;;9.33;90.29
39769;BME280;38939;47.824;14.642;2024-03-22T03:58:08;97383.94;;;9.36;90.10
39769;BME280;38939;47.824;14.642;2024-03-22T03:59:09;97382.31;;;9.35;89.79
39769;BME280;38939;47.824;14.642;2024-03-22T04:00:09;97383.16;;;9.35;90.00
39769;BME280;38939;47.824;14.642;2024-03-22T04:01:10;97384.75;;;9.36;89.56
39769;BME280;38939;47.824;14.642;2024-03-22T04:02:11;97379.53;;;9.36;89.51
39769;BME280;38939;47.824;14.642;2024-03-22T04:03:12;97387.19;;;9.38;89.65
39769;BME280;38939;47.824;14.642;2024-03-22T04:04:12;97388.59;;;9.40;89.41
39769;BME280;38939;47.824;14.642;2024-03-22T04:05:14;97387.19;;;9.38;89.51
39769;BME280;38939;47.824;14.642;2024-03-22T04:06:14;97393.56;;;9.35;89.13
39769;BME280;38939;47.824;14.642;2024-03-22T04:07:15;97389.97;;;9.36;89.10
39769;BME280;38939;47.824;14.642;2024-03-22T04:08:16;97390.97;;;9.35;89.41
39769;BME280;38939;47.824;14.642;2024-03-22T04:09:16;97390.75;;;9.37;89.49
39769;BME280;38939;47.824;14.642;2024-03-22T04:10:17;97383.56;;;9.39;89.02
39769;BME280;38939;47.824;14.642;2024-03-22T04:11:19;97387.81;;;9.40;89.14
39769;BME280;38939;47.824;14.642;2024-03-22T04:12:20;97384.59;;;9.38;88.90
39769;BME280;38939;47.824;14.642;2024-03-22T04:13:21;97383.94;;;9.36;89.10
39769;BME280;38939;47.824;14.642;2024-03-22T04:14:21;97382.53;;;9.33;89.35
39769;BME280;38939;47.824;14.642;2024-03-22T04:15:22;97387.13;;;9.31;88.80
39769;BME280;38939;47.824;14.642;2024-03-22T04:16:23;97384.69;;;9.30;89.00
39769;BME280;38939;47.824;14.642;2024-03-22T04:17:24;97378.41;;;9.24;89.28
39769;BME280;38939;47.824;14.642;2024-03-22T04:18:24;97378.50;;;9.16;89.50
39769;BME280;38939;47.824;14.642;2024-03-22T04:19:25;97376.88;;;9.15;89.74
39769;BME280;38939;47.824;14.642;2024-03-22T04:20:26;97372.50;;;9.15;89.57
39769;BME280;38939;47.824;14.642;2024-03-22T04:21:27;97370.84;;;9.14;89.77
39769;BME280;38939;47.824;14.642;2024-03-22T04:22:27;97382.28;;;9.13;89.72
39769;BME280;38939;47.824;14.642;2024-03-22T04:23:28;97382.44;;;9.12;89.94
39769;BME280;38939;47.824;14.642;2024-03-22T04:24:29;97383.50;;;9.02;90.95
39769;BME280;38939;47.824;14.642;2024-03-22T04:25:29;97377.97;;;9.06;91.33
39769;BME280;38939;47.824;14.642;2024-03-22T04:26:31;97374.34;;;9.07;91.01
39769;BME280;38939;47.824;14.642;2024-03-22T04:27:31;97378.94;;;9.05;90.61
39769;BME280;38939;47.824;14.642;2024-03-22T04:28:32;97364.31;;;9.04;90.21
39769;BME280;38939;47.824;14.642;2024-03-22T04:29:33;97369.88;;;9.00;90.26
39769;BME280;38939;47.824;14.642;2024-03-22T04:30:34;97368.28;;;8.99;89.87
39769;BME280;38939;47.824;14.642;2024-03-22T04:31:34;97370.41;;;8.96;90.11
39769;BME280;38939;47.824;14.642;2024-03-22T04:32:35;97369.78;;;8.94;90.32
39769;BME280;38939;47.824;14.642;2024-03-22T04:33:36;97362.16;;;8.92;90.64
39769;BME280;38939;47.824;14.642;2024-03-22T04:34:41;97366.38;;;8.93;90.91
39769;BME280;38939;47.824;14.642;2024-03-22T04:35:45;97365.59;;;8.93;90.95
39769;BME280;38939;47.824;14.642;2024-03-22T04:36:46;97360.56;;;8.91;90.40
39769;BME280;38939;47.824;14.642;2024-03-22T04:37:46;97364.06;;;8.84;90.76
39769;BME280;38939;47.824;14.642;2024-03-22T04:38:48;97368.00;;;8.79;90.87
39769;BME280;38939;47.824;14.642;2024-03-22T04:39:48;97375.09;;;8.71;90.85
39769;BME280;38939;47.824;14.642;2024-03-22T04:40:49;97365.66;;;8.70;91.17
39769;BME280;38939;47.824;14.642;2024-03-22T04:41:50;97365.81;;;8.68;90.83
39769;BME280;38939;47.824;14.642;2024-03-22T04:42:51;97363.41;;;8.67;91.44
39769;BME280;38939;47.824;14.642;2024-03-22T04:43:51;97365.41;;;8.65;91.16
39769;BME280;38939;47.824;14.642;2024-03-22T04:44:52;97365.41;;;8.65;91.01
39769;BME280;38939;47.824;14.642;2024-03-22T04:45:53;97360.38;;;8.63;91.23
39769;BME280;38939;47.824;14.642;2024-03-22T04:46:53;97366.53;;;8.62;91.15
39769;BME280;38939;47.824;14.642;2024-03-22T04:47:54;97362.34;;;8.61;91.21
39769;BME280;38939;47.824;14.642;2024-03-22T04:48:55;97368.34;;;8.61;91.25
39769;BME280;38939;47.824;14.642;2024-03-22T04:49:56;97365.91;;;8.60;91.18
39769;BME280;38939;47.824;14.642;2024-03-22T04:50:56;97364.19;;;8.52;91.48
39769;BME280;38939;47.824;14.642;2024-03-22T04:51:57;97356.59;;;8.51;91.38
39769;BME280;38939;47.824;14.642;2024-03-22T04:52:58;97363.56;;;8.50;91.33
39769;BME280;38939;47.824;14.642;2024-03-22T04:53:58;97358.34;;;8.50;91.74
39769;BME280;38939;47.824;14.642;2024-03-22T04:54:59;97352.53;;;8.48;91.54
39769;BME280;38939;47.824;14.642;2024-03-22T04:56:02;97354.50;;;8.46;91.80
39769;BME280;38939;47.824;14.642;2024-03-22T04:57:03;97353.22;;;8.42;91.57
39769;BME280;38939;47.824;14.642;2024-03-22T04:58:04;97352.56;;;8.40;92.24
39769;BME280;38939;47.824;14.642;2024-03-22T04:59:04;97348.72;;;8.36;91.87
39769;BME280;38939;47.824;14.642;2024-03-22T05:00:05;97354.44;;;8.31;92.04
39769;BME280;38939;47.824;14.642;2024-03-22T05:01:09;97350.75;;;8.26;92.22
39769;BME280;38939;47.824;14.642;2024-03-22T05:02:09;97353.88;;;8.21;92.00
39769;BME280;38939;47.824;14.642;2024-03-22T05:03:10;97351.63;;;8.18;92.07
39769;BME280;38939;47.824;14.642;2024-03-22T05:04:11;97346.63;;;8.16;92.48
39769;BME280;38939;47.824;14.642;2024-03-22T05:05:12;97348.59;;;8.14;92.32
39769;BME280;38939;47.824;14.642;2024-03-22T05:06:13;97349.72;;;8.12;92.45
39769;BME280;38939;47.824;14.642;2024-03-22T05:07:14;97356.09;;;8.09;92.80
39769;BME280;38939;47.824;14.642;2024-03-22T05:08:14;97350.41;;;8.06;92.79
39769;BME280;38939;47.824;14.642;2024-03-22T05:09:15;97360.72;;;7.99;93.08
39769;BME280;38939;47.824;14.642;2024-03-22T05:10:16;97353.06;;;7.97;93.03
39769;BME280;38939;47.824;14.642;2024-03-22T05:11:17;97352.44;;;7.95;93.44
39769;BME280;38939;47.824;14.642;2024-03-22T05:12:18;97342.59;;;7.91;92.79
39769;BME280;38939;47.824;14.642;2024-03-22T05:13:18;97344.88;;;7.86;93.58
39769;BME280;38939;47.824;14.642;2024-03-22T05:14:21;97345.53;;;7.88;92.70
39769;BME280;38939;47.824;14.642;2024-03-22T05:15:22;97344.53;;;7.89;93.43
39769;BME280;38939;47.824;14.642;2024-03-22T05:16:23;97341.16;;;7.88;93.28
39769;BME280;38939;47.824;14.642;2024-03-22T05:17:24;97344.53;;;7.89;92.77
39769;BME280;38939;47.824;14.642;2024-03-22T05:18:24;97348.13;;;7.88;92.38
39769;BME280;38939;47.824;14.642;2024-03-22T05:19:26;97341.94;;;7.89;92.93
39769;BME280;38939;47.824;14.642;2024-03-22T05:20:27;97334.16;;;7.89;92.82
39769;BME280;38939;47.824;14.642;2024-03-22T05:21:28;97334.97;;;7.89;92.39
39769;BME280;38939;47.824;14.642;2024-03-22T05:22:28;97338.38;;;7.90;92.66
39769;BME280;38939;47.824;14.642;2024-03-22T05:23:29;97340.97;;;7.90;91.76